createdAt,value
2023-01-08T00:00:03.934Z,91.94
2023-01-08T00:01:03.994Z,92.76
2023-01-08T00:02:03.885Z,93.38
2023-01-08T00:03:04.097Z,93.68
2023-01-08T00:04:03.953Z,93.89
2023-01-08T00:05:03.851Z,93.99
2023-01-08T00:06:03.835Z,94.10
2023-01-08T00:07:03.847Z,94.05
2023-01-08T00:08:03.821Z,94.05
2023-01-08T00:09:03.805Z,94.05
2023-01-08T00:10:03.790Z,93.74
2023-01-08T00:11:03.883Z,93.95
2023-01-08T00:12:03.772Z,94.15
2023-01-08T00:13:03.764Z,93.95
2023-01-08T00:14:03.733Z,94.05
2023-01-08T00:15:03.721Z,94.05
2023-01-08T00:16:03.710Z,94.05
2023-01-08T00:17:03.702Z,94.11
2023-01-08T00:18:05.878Z,94.11
2023-01-08T00:19:03.671Z,94.11
2023-01-08T00:20:03.657Z,94.42
2023-01-08T00:21:03.638Z,94.32
2023-01-08T00:22:03.622Z,94.21
2023-01-08T00:23:03.632Z,94.21
2023-01-08T00:24:03.649Z,94.11
2023-01-08T00:25:03.595Z,94.32
2023-01-08T00:26:03.577Z,94.52
2023-01-08T00:27:03.675Z,94.52
2023-01-08T00:28:03.573Z,94.62
2023-01-08T00:29:03.538Z,94.52
2023-01-08T00:30:03.526Z,94.52
2023-01-08T00:31:03.961Z,94.52
2023-01-08T00:32:03.499Z,94.42
2023-01-08T00:33:03.502Z,94.27
2023-01-08T00:34:03.470Z,93.96
2023-01-08T00:35:03.465Z,93.96
2023-01-08T00:36:03.447Z,93.66
2023-01-08T00:37:03.439Z,93.35
2023-01-08T00:38:03.438Z,93.15
2023-01-08T00:39:03.412Z,92.94
2023-01-08T00:40:03.393Z,92.83
2023-01-08T00:41:03.384Z,92.74
2023-01-08T00:42:03.372Z,92.32
2023-01-08T00:43:03.572Z,92.43
2023-01-08T00:44:03.348Z,92.18
2023-01-08T00:45:03.339Z,92.08
2023-01-08T00:46:03.442Z,91.97
2023-01-08T00:47:03.308Z,92.02
2023-01-08T00:48:03.307Z,91.56
2023-01-08T00:49:03.280Z,90.75
2023-01-08T00:50:03.270Z,90.75
2023-01-08T00:51:03.271Z,90.44
2023-01-08T00:52:03.252Z,90.44
2023-01-08T00:53:03.254Z,89.92
2023-01-08T00:54:03.217Z,89.47
2023-01-08T00:55:03.212Z,88.86
2023-01-08T00:56:03.229Z,88.76
2023-01-08T00:57:03.186Z,87.94
2023-01-08T00:58:03.199Z,88.04
2023-01-08T00:59:03.287Z,87.73
2023-01-08T01:00:03.163Z,87.53
2023-01-08T01:01:03.195Z,87.18
2023-01-08T01:02:03.315Z,87.38
2023-01-08T01:03:03.107Z,87.63
2023-01-08T01:04:03.223Z,87.84
2023-01-08T01:05:03.085Z,87.63
2023-01-08T01:06:03.084Z,87.43
2023-01-08T01:07:03.048Z,87.32
2023-01-08T01:08:03.043Z,87.53
2023-01-08T01:09:03.045Z,87.73
2023-01-08T01:10:03.015Z,87.63
2023-01-08T01:11:03.001Z,87.53
2023-01-08T01:12:03.007Z,87.73
2023-01-08T01:13:02.974Z,88.04
2023-01-08T01:14:02.982Z,87.94
2023-01-08T01:15:03.077Z,87.63
2023-01-08T01:16:02.950Z,87.84
2023-01-08T01:17:03.023Z,87.84
2023-01-08T01:18:02.920Z,87.63
2023-01-08T01:19:02.920Z,87.53
2023-01-08T01:20:02.884Z,87.63
2023-01-08T01:21:02.882Z,87.73
2023-01-08T01:22:02.858Z,87.32
2023-01-08T01:23:02.868Z,87.32
2023-01-08T01:24:02.859Z,87.32
2023-01-08T01:25:02.822Z,87.12
2023-01-08T01:26:02.811Z,86.91
2023-01-08T01:27:02.792Z,86.91
2023-01-08T01:28:02.789Z,87.02
2023-01-08T01:29:02.789Z,86.81
2023-01-08T01:30:02.762Z,86.81
2023-01-08T01:31:02.938Z,86.40
2023-01-08T01:32:02.732Z,86.20
2023-01-08T01:33:02.718Z,86.10
2023-01-08T01:34:02.723Z,85.99
2023-01-08T01:35:02.695Z,85.89
2023-01-08T01:36:02.678Z,85.89
2023-01-08T01:37:02.667Z,85.79
2023-01-08T01:38:02.658Z,85.89
2023-01-08T01:39:02.660Z,85.79
2023-01-08T01:40:02.631Z,85.79
2023-01-08T01:41:02.620Z,85.48
2023-01-08T01:42:02.612Z,85.48
2023-01-08T01:43:02.594Z,85.58
2023-01-08T01:44:02.611Z,85.69
2023-01-08T01:45:02.575Z,85.79
2023-01-08T01:46:02.658Z,85.99
2023-01-08T01:47:02.559Z,85.69
2023-01-08T01:48:02.548Z,85.58
2023-01-08T01:49:02.532Z,85.58
2023-01-08T01:50:02.503Z,85.58
2023-01-08T01:51:02.508Z,85.75
2023-01-08T01:52:02.494Z,85.58
2023-01-08T01:53:02.466Z,85.55
2023-01-08T01:54:02.464Z,85.58
2023-01-08T01:55:02.443Z,85.44
2023-01-08T01:56:02.452Z,85.34
2023-01-08T01:57:02.413Z,85.14
2023-01-08T01:58:02.397Z,85.24
2023-01-08T01:59:02.402Z,85.24
2023-01-08T02:00:02.379Z,85.44
2023-01-08T02:01:02.418Z,85.48
2023-01-08T02:02:02.573Z,85.34
2023-01-08T02:03:02.444Z,85.28
2023-01-08T02:04:02.437Z,85.14
2023-01-08T02:05:02.310Z,85.28
2023-01-08T02:06:02.293Z,85.48
2023-01-08T02:07:02.276Z,85.69
2023-01-08T02:08:02.272Z,85.79
2023-01-08T02:09:02.256Z,85.48
2023-01-08T02:10:02.264Z,85.58
2023-01-08T02:11:02.226Z,85.89
2023-01-08T02:12:02.214Z,86.20
2023-01-08T02:13:02.200Z,86.20
2023-01-08T02:14:02.203Z,86.20
2023-01-08T02:15:02.187Z,86.40
2023-01-08T02:16:02.167Z,86.40
2023-01-08T02:17:02.216Z,86.71
2023-01-08T02:18:02.138Z,87.02
2023-01-08T02:19:02.249Z,87.32
2023-01-08T02:20:02.131Z,87.88
2023-01-08T02:21:02.102Z,87.77
2023-01-08T02:22:02.090Z,87.98
2023-01-08T02:23:02.075Z,88.18
2023-01-08T02:24:02.068Z,88.59
2023-01-08T02:25:02.065Z,89.00
2023-01-08T02:26:02.039Z,89.00
2023-01-08T02:27:02.021Z,89.21
2023-01-08T02:28:02.018Z,89.21
2023-01-08T02:29:02.011Z,89.31
2023-01-08T02:30:02.074Z,89.31
2023-01-08T02:31:02.059Z,89.62
2023-01-08T02:32:01.972Z,89.42
2023-01-08T02:33:01.968Z,89.42
2023-01-08T02:34:01.951Z,89.00
2023-01-08T02:35:01.961Z,89.11
2023-01-08T02:36:01.909Z,89.11
2023-01-08T02:37:01.905Z,89.31
2023-01-08T02:38:01.899Z,89.21
2023-01-08T02:39:01.870Z,89.11
2023-01-08T02:40:01.886Z,88.90
2023-01-08T02:41:01.855Z,88.70
2023-01-08T02:42:01.837Z,88.70
2023-01-08T02:43:01.823Z,88.80
2023-01-08T02:44:01.825Z,88.70
2023-01-08T02:45:01.811Z,88.70
2023-01-08T02:46:01.896Z,88.59
2023-01-08T02:47:01.767Z,89.11
2023-01-08T02:48:01.760Z,89.00
2023-01-08T02:49:01.756Z,88.80
2023-01-08T02:50:01.753Z,88.70
2023-01-08T02:51:01.829Z,88.70
2023-01-08T02:52:01.703Z,88.76
2023-01-08T02:53:01.695Z,89.11
2023-01-08T02:54:01.677Z,89.51
2023-01-08T02:55:01.676Z,89.72
2023-01-08T02:56:01.677Z,90.13
2023-01-08T02:57:01.637Z,90.64
2023-01-08T02:58:01.629Z,90.95
2023-01-08T02:59:01.633Z,91.26
2023-01-08T03:00:01.620Z,91.46
2023-01-08T03:01:01.630Z,91.67
2023-01-08T03:02:01.769Z,91.87
2023-01-08T03:03:01.587Z,91.97
2023-01-08T03:04:01.589Z,92.38
2023-01-08T03:05:01.549Z,92.28
2023-01-08T03:06:01.526Z,92.74
2023-01-08T03:07:01.765Z,92.83
2023-01-08T03:08:01.500Z,93.25
2023-01-08T03:09:01.487Z,92.94
2023-01-08T03:10:01.491Z,93.15
2023-01-08T03:11:01.455Z,93.15
2023-01-08T03:12:01.462Z,93.25
2023-01-08T03:13:01.434Z,93.35
2023-01-08T03:14:01.421Z,93.55
2023-01-08T03:15:01.441Z,93.35
2023-01-08T03:16:01.395Z,93.66
2023-01-08T03:17:01.460Z,93.86
2023-01-08T03:18:01.373Z,94.07
2023-01-08T03:19:01.373Z,93.96
2023-01-08T03:20:01.360Z,94.17
2023-01-08T03:21:01.330Z,94.07
2023-01-08T03:22:01.321Z,94.17
2023-01-08T03:23:01.425Z,94.27
2023-01-08T03:24:01.296Z,94.27
2023-01-08T03:25:01.292Z,94.48
2023-01-08T03:26:01.268Z,94.48
2023-01-08T03:27:01.254Z,94.68
2023-01-08T03:28:01.250Z,94.78
2023-01-08T03:29:01.229Z,94.78
2023-01-08T03:30:01.231Z,94.99
2023-01-08T03:31:01.245Z,94.89
2023-01-08T03:32:01.194Z,94.99
2023-01-08T03:33:01.180Z,94.99
2023-01-08T03:34:01.165Z,95.20
2023-01-08T03:35:01.171Z,95.20
2023-01-08T03:36:01.153Z,95.29
2023-01-08T03:37:01.133Z,95.40
2023-01-08T03:38:01.117Z,95.29
2023-01-08T03:39:01.218Z,95.29
2023-01-08T03:40:01.171Z,95.61
2023-01-08T03:41:01.073Z,95.70
2023-01-08T03:42:01.070Z,95.70
2023-01-08T03:43:01.051Z,95.70
2023-01-08T03:44:01.048Z,95.91
2023-01-08T03:45:01.059Z,96.22
2023-01-08T03:46:01.119Z,96.32
2023-01-08T03:47:01.005Z,95.91
2023-01-08T03:48:00.996Z,96.12
2023-01-08T03:49:00.978Z,96.12
2023-01-08T03:50:00.964Z,96.32
2023-01-08T03:51:00.966Z,96.32
2023-01-08T03:52:00.940Z,96.73
2023-01-08T03:53:01.208Z,96.73
2023-01-08T03:54:00.918Z,96.73
2023-01-08T03:55:01.015Z,96.78
2023-01-08T03:56:00.904Z,96.78
2023-01-08T03:57:00.892Z,96.98
2023-01-08T03:58:00.870Z,97.39
2023-01-08T03:59:00.846Z,97.29
2023-01-08T04:00:00.844Z,97.60
2023-01-08T04:01:00.850Z,97.70
2023-01-08T04:02:00.987Z,97.80
2023-01-08T04:03:00.796Z,97.70
2023-01-08T04:04:00.821Z,98.11
2023-01-08T04:05:00.773Z,98.00
2023-01-08T04:06:00.771Z,98.32
2023-01-08T04:07:00.759Z,98.62
2023-01-08T04:08:00.739Z,98.72
2023-01-08T04:09:00.736Z,98.32
2023-01-08T04:10:00.706Z,98.32
2023-01-08T04:11:00.821Z,98.52
2023-01-08T04:12:00.686Z,98.42
2023-01-08T04:13:00.671Z,98.72
2023-01-08T04:14:00.676Z,98.62
2023-01-08T04:15:00.646Z,98.72
2023-01-08T04:16:00.782Z,98.62
2023-01-08T04:17:00.630Z,98.83
2023-01-08T04:18:00.622Z,98.93
2023-01-08T04:19:00.604Z,99.13
2023-01-08T04:20:00.592Z,99.34
2023-01-08T04:21:00.591Z,99.54
2023-01-08T04:22:00.556Z,99.65
2023-01-08T04:23:00.545Z,99.44
2023-01-08T04:24:00.535Z,99.65
2023-01-08T04:25:00.535Z,99.44
2023-01-08T04:26:00.521Z,99.75
2023-01-08T04:27:00.607Z,99.75
2023-01-08T04:28:00.492Z,99.85
2023-01-08T04:29:00.470Z,99.99
2023-01-08T04:30:00.454Z,99.99
2023-01-08T04:31:00.577Z,99.99
2023-01-08T04:32:00.438Z,99.99
2023-01-08T04:33:00.418Z,99.99
2023-01-08T04:34:00.405Z,99.99
2023-01-08T04:35:00.392Z,99.99
2023-01-08T04:36:00.395Z,99.99
2023-01-08T04:37:00.369Z,99.99
2023-01-08T04:38:00.356Z,99.99
2023-01-08T04:39:00.337Z,99.99
2023-01-08T04:40:00.326Z,99.99
2023-01-08T04:41:00.355Z,99.99
2023-01-08T04:42:00.312Z,99.99
2023-01-08T04:43:00.323Z,99.99
2023-01-08T04:44:00.277Z,99.99
2023-01-08T04:45:00.262Z,99.99
2023-01-08T04:46:00.343Z,99.99
2023-01-08T04:47:00.243Z,99.99
2023-01-08T04:48:00.229Z,99.99
2023-01-08T04:49:00.237Z,99.99
2023-01-08T04:50:00.199Z,99.99
2023-01-08T04:51:00.265Z,99.54
2023-01-08T04:52:00.176Z,99.60
2023-01-08T04:53:00.157Z,99.50
2023-01-08T04:54:00.150Z,99.29
2023-01-08T04:55:00.136Z,99.19
2023-01-08T04:56:00.138Z,98.58
2023-01-08T04:57:00.163Z,98.68
2023-01-08T04:58:00.111Z,98.78
2023-01-08T04:59:00.128Z,98.78
2023-01-08T05:00:00.125Z,98.78
2023-01-08T05:01:00.059Z,98.88
2023-01-08T05:02:00.205Z,98.88
2023-01-08T05:03:00.101Z,98.88
2023-01-08T05:04:00.026Z,98.99
2023-01-08T05:05:00.022Z,99.40
2023-01-08T05:05:59.996Z,99.44
2023-01-08T05:07:00.109Z,99.44
2023-01-08T05:07:59.973Z,99.65
2023-01-08T05:08:59.957Z,99.54
2023-01-08T05:09:59.945Z,99.75
2023-01-08T05:10:59.939Z,99.34
2023-01-08T05:11:59.938Z,99.44
2023-01-08T05:12:59.909Z,99.54
2023-01-08T05:13:59.898Z,99.24
2023-01-08T05:15:00.005Z,99.34
2023-01-08T05:15:59.965Z,99.65
2023-01-08T05:16:59.878Z,99.85
2023-01-08T05:17:59.843Z,99.95
2023-01-08T05:18:59.841Z,99.99
2023-01-08T05:19:59.825Z,99.99
2023-01-08T05:20:59.805Z,99.99
2023-01-08T05:21:59.813Z,99.59
2023-01-08T05:22:59.801Z,99.99
2023-01-08T05:23:59.769Z,99.99
2023-01-08T05:24:59.763Z,99.99
2023-01-08T05:25:59.762Z,99.99
2023-01-08T05:26:59.741Z,99.99
2023-01-08T05:27:59.722Z,99.99
2023-01-08T05:28:59.700Z,99.99
2023-01-08T05:29:59.691Z,99.99
2023-01-08T05:30:59.849Z,99.99
2023-01-08T05:31:59.686Z,99.99
2023-01-08T05:32:59.655Z,99.99
2023-01-08T05:33:59.652Z,99.99
2023-01-08T05:34:59.632Z,99.99
2023-01-08T05:35:59.620Z,99.99
2023-01-08T05:36:59.626Z,99.99
2023-01-08T05:37:59.594Z,99.99
2023-01-08T05:38:59.584Z,99.99
2023-01-08T05:39:59.572Z,99.99
2023-01-08T05:40:59.554Z,99.99
2023-01-08T05:41:59.550Z,99.99
2023-01-08T05:42:59.519Z,99.99
2023-01-08T05:43:59.511Z,99.99
2023-01-08T05:44:59.496Z,99.99
2023-01-08T05:45:59.544Z,99.99
2023-01-08T05:46:59.624Z,99.99
2023-01-08T05:47:59.462Z,99.99
2023-01-08T05:48:59.449Z,99.99
2023-01-08T05:49:59.444Z,99.99
2023-01-08T05:50:59.439Z,99.99
2023-01-08T05:51:59.407Z,99.99
2023-01-08T05:52:59.407Z,99.99
2023-01-08T05:53:59.379Z,99.99
2023-01-08T05:54:59.372Z,99.99
2023-01-08T05:55:59.357Z,99.99
2023-01-08T05:56:59.343Z,99.99
2023-01-08T05:57:59.339Z,99.99
2023-01-08T05:58:59.321Z,99.99
2023-01-08T05:59:59.306Z,99.99
2023-01-08T06:00:59.291Z,99.99
2023-01-08T06:01:59.292Z,99.99
2023-01-08T06:02:59.496Z,99.99
2023-01-08T06:03:59.306Z,99.99
2023-01-08T06:04:59.239Z,99.99
2023-01-08T06:05:59.223Z,99.99
2023-01-08T06:06:59.218Z,99.99
2023-01-08T06:07:59.215Z,99.99
2023-01-08T06:08:59.188Z,99.99
2023-01-08T06:09:59.183Z,99.99
2023-01-08T06:10:59.159Z,99.99
2023-01-08T06:11:59.144Z,99.99
2023-01-08T06:12:59.153Z,99.99
2023-01-08T06:13:59.125Z,99.99
2023-01-08T06:14:59.114Z,99.99
2023-01-08T06:15:59.187Z,99.99
2023-01-08T06:16:59.116Z,99.99
2023-01-08T06:17:59.089Z,99.99
2023-01-08T06:18:59.080Z,99.99
2023-01-08T06:19:59.042Z,99.99
2023-01-08T06:20:59.048Z,99.99
2023-01-08T06:21:59.029Z,99.99
2023-01-08T06:22:59.023Z,99.99
2023-01-08T06:23:58.995Z,99.99
2023-01-08T06:24:58.979Z,99.99
2023-01-08T06:25:58.969Z,99.99
2023-01-08T06:26:58.963Z,99.99
2023-01-08T06:27:58.956Z,99.99
2023-01-08T06:28:58.926Z,99.99
2023-01-08T06:29:58.915Z,99.99
2023-01-08T06:30:58.934Z,99.99
2023-01-08T06:31:58.890Z,99.99
2023-01-08T06:32:58.894Z,99.99
2023-01-08T06:33:58.870Z,99.99
2023-01-08T06:34:58.977Z,99.99
2023-01-08T06:35:58.839Z,99.99
2023-01-08T06:36:58.823Z,99.99
2023-01-08T06:37:58.831Z,99.99
2023-01-08T06:38:58.822Z,99.99
2023-01-08T06:39:58.803Z,99.99
2023-01-08T06:40:58.773Z,99.99
2023-01-08T06:41:58.759Z,99.99
2023-01-08T06:42:58.761Z,99.99
2023-01-08T06:43:58.733Z,99.99
2023-01-08T06:44:58.771Z,99.99
2023-01-08T06:45:58.726Z,99.99
2023-01-08T06:46:58.700Z,99.99
2023-01-08T06:47:58.694Z,99.99
2023-01-08T06:48:58.675Z,99.99
2023-01-08T06:49:58.651Z,99.99
2023-01-08T06:50:58.760Z,99.99
2023-01-08T06:51:58.627Z,99.99
2023-01-08T06:52:58.632Z,99.99
2023-01-08T06:53:58.597Z,99.99
2023-01-08T06:54:58.590Z,99.99
2023-01-08T06:55:58.643Z,99.99
2023-01-08T06:56:58.569Z,99.99
2023-01-08T06:57:58.596Z,99.99
2023-01-08T06:58:58.547Z,99.99
2023-01-08T06:59:58.523Z,99.99
2023-01-08T07:00:58.509Z,99.99
2023-01-08T07:01:58.661Z,99.99
2023-01-08T07:02:58.633Z,99.99
2023-01-08T07:03:58.476Z,99.99
2023-01-08T07:04:58.473Z,99.99
2023-01-08T07:05:58.491Z,99.99
2023-01-08T07:06:58.580Z,99.99
2023-01-08T07:07:58.444Z,99.99
2023-01-08T07:08:58.422Z,99.99
2023-01-08T07:09:58.399Z,99.99
2023-01-08T07:10:58.384Z,99.99
2023-01-08T07:11:58.374Z,99.99
2023-01-08T07:12:58.425Z,99.99
2023-01-08T07:13:58.358Z,99.99
2023-01-08T07:14:58.334Z,99.99
2023-01-08T07:15:58.372Z,99.99
2023-01-08T07:16:58.309Z,99.99
2023-01-08T07:17:58.311Z,99.99
2023-01-08T07:18:58.291Z,99.99
2023-01-08T07:19:58.265Z,99.99
2023-01-08T07:20:58.255Z,99.99
2023-01-08T07:21:58.232Z,99.99
2023-01-08T07:22:58.342Z,99.99
2023-01-08T07:23:58.226Z,99.99
2023-01-08T07:24:58.200Z,99.99
2023-01-08T07:25:58.182Z,99.99
2023-01-08T07:26:58.176Z,99.99
2023-01-08T07:27:58.157Z,99.99
2023-01-08T07:28:58.167Z,99.99
2023-01-08T07:29:58.129Z,99.99
2023-01-08T07:30:58.201Z,99.99
2023-01-08T07:31:58.117Z,99.99
2023-01-08T07:32:58.093Z,99.99
2023-01-08T07:33:58.094Z,99.99
2023-01-08T07:34:58.067Z,99.99
2023-01-08T07:35:58.055Z,99.99
2023-01-08T07:36:58.046Z,99.99
2023-01-08T07:37:58.036Z,99.99
2023-01-08T07:38:58.155Z,99.99
2023-01-08T07:39:58.001Z,99.99
2023-01-08T07:40:57.989Z,99.99
2023-01-08T07:41:57.974Z,99.99
2023-01-08T07:42:57.975Z,99.99
2023-01-08T07:43:57.965Z,99.99
2023-01-08T07:44:57.942Z,99.99
2023-01-08T07:45:57.928Z,99.99
2023-01-08T07:46:57.918Z,99.99
2023-01-08T07:47:57.904Z,99.99
2023-01-08T07:48:57.900Z,99.99
2023-01-08T07:49:57.884Z,99.99
2023-01-08T07:50:57.865Z,99.99
2023-01-08T07:51:57.845Z,99.99
2023-01-08T07:52:57.838Z,99.99
2023-01-08T07:53:57.834Z,99.99
2023-01-08T07:54:57.917Z,99.99
2023-01-08T07:55:57.798Z,99.99
2023-01-08T07:56:57.790Z,99.99
2023-01-08T07:57:57.781Z,99.99
2023-01-08T07:58:57.776Z,99.99
2023-01-08T07:59:57.744Z,99.99
2023-01-08T08:00:59.258Z,99.99
2023-01-08T08:01:57.928Z,99.99
2023-01-08T08:02:57.854Z,99.99
2023-01-08T08:03:57.714Z,99.99
2023-01-08T08:04:57.674Z,99.99
2023-01-08T08:05:57.663Z,99.99
2023-01-08T08:06:57.657Z,99.99
2023-01-08T08:07:57.638Z,99.99
2023-01-08T08:08:57.643Z,99.99
2023-01-08T08:09:57.607Z,99.99
2023-01-08T08:10:57.714Z,99.99
2023-01-08T08:11:57.583Z,99.99
2023-01-08T08:12:57.579Z,99.99
2023-01-08T08:13:57.576Z,99.99
2023-01-08T08:14:57.558Z,99.99
2023-01-08T08:15:57.552Z,99.99
2023-01-08T08:16:57.521Z,99.99
2023-01-08T08:17:57.503Z,99.99
2023-01-08T08:18:57.513Z,99.99
2023-01-08T08:19:57.478Z,99.99
2023-01-08T08:20:57.467Z,99.99
2023-01-08T08:21:57.452Z,99.99
2023-01-08T08:22:57.443Z,99.99
2023-01-08T08:23:57.450Z,99.99
2023-01-08T08:24:57.420Z,99.99
2023-01-08T08:25:57.400Z,99.99
2023-01-08T08:26:57.572Z,99.99
2023-01-08T08:27:57.384Z,99.99
2023-01-08T08:28:57.400Z,99.99
2023-01-08T08:29:57.354Z,99.99
2023-01-08T08:30:57.420Z,99.99
2023-01-08T08:31:57.321Z,99.99
2023-01-08T08:32:57.313Z,99.99
2023-01-08T08:33:57.304Z,99.99
2023-01-08T08:34:57.302Z,99.99
2023-01-08T08:35:57.276Z,99.99
2023-01-08T08:36:57.265Z,99.99
2023-01-08T08:37:57.256Z,99.99
2023-01-08T08:38:57.242Z,99.99
2023-01-08T08:39:57.264Z,99.99
2023-01-08T08:40:57.221Z,99.99
2023-01-08T08:41:57.195Z,99.99
2023-01-08T08:42:57.199Z,99.99
2023-01-08T08:43:57.171Z,99.99
2023-01-08T08:44:57.168Z,99.99
2023-01-08T08:45:57.145Z,99.99
2023-01-08T08:46:57.308Z,99.99
2023-01-08T08:47:57.117Z,99.99
2023-01-08T08:48:57.105Z,99.99
2023-01-08T08:49:57.099Z,99.99
2023-01-08T08:50:57.083Z,99.99
2023-01-08T08:51:57.069Z,99.99
2023-01-08T08:52:57.052Z,99.99
2023-01-08T08:53:57.047Z,99.99
2023-01-08T08:54:57.041Z,99.99
2023-01-08T08:55:57.008Z,99.99
2023-01-08T08:56:56.999Z,99.99
2023-01-08T08:57:56.984Z,99.99
2023-01-08T08:58:57.083Z,99.99
2023-01-08T08:59:56.981Z,99.99
2023-01-08T09:00:56.953Z,99.99
2023-01-08T09:01:57.091Z,99.99
2023-01-08T09:02:57.046Z,99.99
2023-01-08T09:03:56.933Z,99.99
2023-01-08T09:04:56.922Z,99.99
2023-01-08T09:05:59.568Z,99.99
2023-01-08T09:06:56.913Z,99.99
2023-01-08T09:07:56.862Z,99.99
2023-01-08T09:08:56.848Z,99.99
2023-01-08T09:09:56.839Z,99.99
2023-01-08T09:10:56.838Z,99.99
2023-01-08T09:11:56.822Z,99.99
2023-01-08T09:12:56.800Z,99.99
2023-01-08T09:13:56.806Z,99.99
2023-01-08T09:14:56.968Z,99.99
2023-01-08T09:15:57.483Z,99.99
2023-01-08T09:16:56.743Z,99.99
2023-01-08T09:17:56.743Z,99.99
2023-01-08T09:18:57.000Z,99.99
2023-01-08T09:19:58.467Z,99.99
2023-01-08T09:20:56.700Z,99.99
2023-01-08T09:21:56.675Z,99.99
2023-01-08T09:22:56.664Z,99.99
2023-01-08T09:23:56.648Z,99.99
2023-01-08T09:24:56.656Z,99.99
2023-01-08T09:25:56.619Z,99.99
2023-01-08T09:26:56.609Z,99.99
2023-01-08T09:27:56.598Z,99.99
2023-01-08T09:28:56.586Z,99.99
2023-01-08T09:29:56.596Z,99.99
2023-01-08T09:30:56.697Z,99.99
2023-01-08T09:31:56.602Z,99.99
2023-01-08T09:32:56.533Z,99.99
2023-01-08T09:33:56.527Z,99.99
2023-01-08T09:34:56.533Z,99.99
2023-01-08T09:35:56.499Z,99.99
2023-01-08T09:36:56.485Z,99.99
2023-01-08T09:37:56.479Z,99.99
2023-01-08T09:38:56.454Z,99.99
2023-01-08T09:40:02.278Z,99.99
2023-01-08T09:40:57.444Z,99.99
2023-01-08T09:41:56.415Z,99.99
2023-01-08T09:42:56.420Z,99.99
2023-01-08T09:43:56.389Z,99.99
2023-01-08T09:44:56.389Z,99.99
2023-01-08T09:45:56.368Z,99.99
2023-01-08T09:46:56.484Z,99.99
2023-01-08T09:47:56.344Z,99.99
2023-01-08T09:48:56.340Z,99.99
2023-01-08T09:49:56.334Z,99.99
2023-01-08T09:50:56.329Z,99.99
2023-01-08T09:51:56.290Z,99.99
2023-01-08T09:52:56.273Z,99.99
2023-01-08T09:53:56.288Z,99.99
2023-01-08T09:54:56.272Z,99.99
2023-01-08T09:56:09.213Z,99.99
2023-01-08T09:56:57.228Z,99.99
2023-01-08T09:57:56.218Z,99.99
2023-01-08T09:58:56.199Z,99.99
2023-01-08T09:59:56.198Z,99.99
2023-01-08T10:00:56.267Z,99.99
2023-01-08T10:01:56.264Z,99.99
2023-01-08T10:02:56.374Z,99.99
2023-01-08T10:03:56.152Z,99.99
2023-01-08T10:04:56.158Z,99.99
2023-01-08T10:05:56.107Z,99.99
2023-01-08T10:06:56.094Z,99.99
2023-01-08T10:07:56.085Z,99.99
2023-01-08T10:08:56.075Z,99.99
2023-01-08T10:09:56.089Z,99.99
2023-01-08T10:10:56.041Z,99.99
2023-01-08T10:11:56.037Z,99.99
2023-01-08T10:12:56.039Z,99.99
2023-01-08T10:13:56.015Z,99.99
2023-01-08T10:14:56.007Z,99.99
2023-01-08T10:15:56.026Z,99.99
2023-01-08T10:16:55.980Z,99.99
2023-01-08T10:17:55.964Z,99.99
2023-01-08T10:18:56.074Z,99.99
2023-01-08T10:19:55.947Z,99.99
2023-01-08T10:20:55.921Z,99.99
2023-01-08T10:21:55.910Z,99.99
2023-01-08T10:22:55.893Z,99.99
2023-01-08T10:23:55.884Z,99.99
2023-01-08T10:24:55.890Z,99.99
2023-01-08T10:25:55.853Z,99.99
2023-01-08T10:26:55.848Z,99.99
2023-01-08T10:27:55.830Z,99.99
2023-01-08T10:28:55.811Z,99.99
2023-01-08T10:29:55.806Z,99.99
2023-01-08T10:30:55.810Z,99.99
2023-01-08T10:31:55.776Z,99.99
2023-01-08T10:32:55.784Z,99.99
2023-01-08T10:33:55.755Z,99.99
2023-01-08T10:34:55.762Z,99.99
2023-01-08T10:35:55.751Z,99.99
2023-01-08T10:36:55.727Z,99.99
2023-01-08T10:37:55.703Z,99.99
2023-01-08T10:38:55.692Z,99.99
2023-01-08T10:39:55.680Z,99.99
2023-01-08T10:40:55.688Z,99.99
2023-01-08T10:41:55.653Z,99.99
2023-01-08T10:42:55.638Z,99.99
2023-01-08T10:43:55.630Z,99.99
2023-01-08T10:44:55.610Z,99.99
2023-01-08T10:45:55.638Z,99.99
2023-01-08T10:46:55.590Z,99.99
2023-01-08T10:47:55.578Z,99.99
2023-01-08T10:48:55.581Z,99.99
2023-01-08T10:49:55.552Z,99.99
2023-01-08T10:50:55.566Z,99.99
2023-01-08T10:51:55.531Z,99.99
2023-01-08T10:52:55.509Z,99.99
2023-01-08T10:53:55.504Z,99.99
2023-01-08T10:54:55.482Z,99.99
2023-01-08T10:55:55.490Z,99.99
2023-01-08T10:56:55.460Z,99.99
2023-01-08T10:57:55.448Z,99.99
2023-01-08T10:58:55.432Z,99.99
2023-01-08T10:59:55.431Z,99.99
2023-01-08T11:00:55.474Z,99.99
2023-01-08T11:01:55.487Z,99.99
2023-01-08T11:02:55.382Z,99.99
2023-01-08T11:03:55.379Z,99.99
2023-01-08T11:04:55.360Z,99.99
2023-01-08T11:05:55.359Z,99.99
2023-01-08T11:06:55.355Z,99.99
2023-01-08T11:07:55.320Z,99.99
2023-01-08T11:08:55.314Z,99.99
2023-01-08T11:09:55.299Z,99.99
2023-01-08T11:10:55.295Z,99.99
2023-01-08T11:11:55.274Z,99.99
2023-01-08T11:12:55.263Z,99.99
2023-01-08T11:13:55.248Z,99.99
2023-01-08T11:14:55.230Z,99.99
2023-01-08T11:15:55.252Z,99.99
2023-01-08T11:16:55.209Z,99.99
2023-01-08T11:17:55.207Z,99.99
2023-01-08T11:18:55.183Z,99.99
2023-01-08T11:19:55.943Z,99.99
2023-01-08T11:20:55.170Z,99.99
2023-01-08T11:21:55.147Z,99.99
2023-01-08T11:22:55.155Z,99.99
2023-01-08T11:23:55.123Z,99.99
2023-01-08T11:24:55.119Z,99.99
2023-01-08T11:25:55.112Z,99.99
2023-01-08T11:26:55.079Z,99.99
2023-01-08T11:27:55.066Z,99.99
2023-01-08T11:28:55.052Z,99.99
2023-01-08T11:29:55.047Z,99.99
2023-01-08T11:30:55.042Z,99.99
2023-01-08T11:31:55.097Z,99.99
2023-01-08T11:32:55.007Z,99.99
2023-01-08T11:33:54.989Z,99.99
2023-01-08T11:34:54.979Z,99.15
2023-01-08T11:35:54.978Z,99.20
2023-01-08T11:36:54.951Z,97.82
2023-01-08T11:37:54.933Z,95.90
2023-01-08T11:38:55.040Z,93.70
2023-01-08T11:39:54.923Z,92.50
2023-01-08T11:40:54.911Z,90.63
2023-01-08T11:41:54.888Z,90.16
2023-01-08T11:42:54.869Z,91.43
2023-01-08T11:43:54.857Z,91.37
2023-01-08T11:44:54.844Z,92.29
2023-01-08T11:45:54.994Z,92.59
2023-01-08T11:46:54.821Z,91.78
2023-01-08T11:47:54.803Z,93.40
2023-01-08T11:48:54.791Z,94.15
2023-01-08T11:49:54.781Z,94.77
2023-01-08T11:50:54.761Z,94.51
2023-01-08T11:51:54.770Z,95.63
2023-01-08T11:52:54.747Z,95.69
2023-01-08T11:53:54.732Z,94.01
2023-01-08T11:54:54.751Z,94.36
2023-01-08T11:55:54.742Z,94.77
2023-01-08T11:56:54.702Z,95.38
2023-01-08T11:57:54.670Z,94.32
2023-01-08T11:58:54.655Z,94.67
2023-01-08T11:59:54.648Z,95.32
2023-01-08T12:00:54.638Z,95.28
2023-01-08T12:01:54.791Z,95.28
2023-01-08T12:02:54.661Z,94.87
2023-01-08T12:03:54.598Z,94.11
2023-01-08T12:04:54.591Z,93.15
2023-01-08T12:05:54.578Z,91.16
2023-01-08T12:06:54.575Z,93.15
2023-01-08T12:07:54.542Z,93.76
2023-01-08T12:08:54.527Z,94.42
2023-01-08T12:09:54.520Z,94.26
2023-01-08T12:10:54.577Z,94.67
2023-01-08T12:11:54.523Z,94.77
2023-01-08T12:12:54.476Z,95.79
2023-01-08T12:13:54.463Z,95.07
2023-01-08T12:14:54.458Z,94.77
2023-01-08T12:15:54.440Z,95.38
2023-01-08T12:16:54.440Z,95.18
2023-01-08T12:17:54.425Z,95.03
2023-01-08T12:18:54.402Z,94.77
2023-01-08T12:19:54.384Z,94.26
2023-01-08T12:20:54.372Z,94.87
2023-01-08T12:21:54.380Z,95.03
2023-01-08T12:22:54.343Z,95.18
2023-01-08T12:23:54.340Z,94.56
2023-01-08T12:24:54.329Z,94.77
2023-01-08T12:25:54.311Z,94.77
2023-01-08T12:26:54.435Z,94.36
2023-01-08T12:27:57.296Z,94.46
2023-01-08T12:28:54.277Z,93.85
2023-01-08T12:29:54.257Z,93.95
2023-01-08T12:30:54.244Z,94.26
2023-01-08T12:32:03.098Z,94.56
2023-01-08T12:32:55.216Z,94.93
2023-01-08T12:33:54.230Z,94.73
2023-01-08T12:34:54.194Z,95.18
2023-01-08T12:35:54.192Z,95.28
2023-01-08T12:36:54.186Z,95.28
2023-01-08T12:37:54.163Z,95.28
2023-01-08T12:38:54.141Z,95.79
2023-01-08T12:39:54.167Z,95.79
2023-01-08T12:40:54.117Z,95.13
2023-01-08T12:41:54.111Z,95.59
2023-01-08T12:43:01.135Z,96.20
2023-01-08T12:43:55.084Z,96.51
2023-01-08T12:44:54.062Z,96.55
2023-01-08T12:45:54.126Z,96.45
2023-01-08T12:46:54.051Z,96.45
2023-01-08T12:47:54.024Z,96.75
2023-01-08T12:48:54.027Z,96.96
2023-01-08T12:49:54.003Z,96.66
2023-01-08T12:50:53.991Z,96.08
2023-01-08T12:51:53.988Z,96.70